»·PEaware :: DIHNF KMRY-KPRB

DIHNF :: KMRY-KPRB

FLIGHT INFORMATION

Flight Status: Arrived
Operator: Unknown
More flights by this operator :: More flights under this callsign
Pilot: Klaus A. (15485)
Aircraft: BEECH AIRCRAFT BARON
(BE58)
More flights by this aircraft type
Origin: KMRY Monterey Peninsula
United States
Destination: KPRB Paso Robles Mun
United States
More flights between these airports :: More routes between these airports
Route: +MRY5 SNS V25 PRB
File this flight plan on PilotEdge
Remarks:
Altitude:
(Current/Filed)
11,000ft
Speed:
(Current/Filed)
170kts
Departed: 03-Feb-19 09:07 AM
Arrived: 03-Feb-19 09:45 AM
Distance/Time
Traveled:
80nm/0:38
Distance/Time
To Go:
Arrived

Flight Plot

Page will automatically refresh every two minutes.

Flight plan parsing failed; only flown route is shown


Map Options




Map Legend


Flown Route
Filed Route
Departure Airport
Arrival Airport
Navaid (VOR, NDB)
Fix

Horizontal Profiles

Position Reports

Time Latitude Longitude Heading Altitude Ground
Speed
03-Feb-19 08:48 36.587815 -121.838917 110 259ft 0kts
03-Feb-19 08:49 36.587815 -121.838917 110 259ft 0kts
03-Feb-19 08:50 36.587815 -121.838917 110 259ft 0kts
03-Feb-19 08:51 36.587815 -121.838917 110 259ft 0kts
03-Feb-19 08:53 36.587815 -121.838917 110 259ft 0kts
03-Feb-19 08:54 36.587815 -121.838917 110 259ft 0kts
03-Feb-19 08:55 36.587815 -121.838917 110 259ft 0kts
03-Feb-19 08:56 36.587815 -121.838917 110 259ft 0kts
03-Feb-19 08:57 36.587815 -121.838917 111 259ft 0kts
03-Feb-19 08:58 36.587815 -121.838917 111 259ft 0kts
03-Feb-19 08:59 36.587815 -121.838917 110 259ft 0kts
03-Feb-19 09:00 36.587815 -121.838917 110 259ft 0kts
03-Feb-19 09:01 36.587812 -121.838908 111 259ft 1kts
03-Feb-19 09:02 36.587015 -121.838644 172 259ft 3kts
03-Feb-19 09:03 36.585967 -121.835661 112 259ft 14kts
03-Feb-19 09:04 36.585412 -121.833692 106 259ft 0kts
03-Feb-19 09:05 36.585412 -121.833692 107 259ft 0kts
03-Feb-19 09:06 36.585207 -121.833488 171 259ft 0kts
03-Feb-19 09:07 36.587853 -121.842089 293 367ft 106kts
03-Feb-19 09:08 36.611815 -121.872095 330 1930ft 144kts
03-Feb-19 09:09 36.650250 -121.876601 49 3500ft 158kts
03-Feb-19 09:10 36.656991 -121.824165 91 4718ft 157kts
03-Feb-19 09:11 36.658193 -121.768954 91 5761ft 165kts
03-Feb-19 09:11 36.659177 -121.720771 87 6515ft 171kts
03-Feb-19 09:12 36.660787 -121.659278 88 6998ft 194kts
03-Feb-19 09:14 36.646067 -121.586934 148 7001ft 192kts
03-Feb-19 09:14 36.611158 -121.553604 146 7058ft 192kts
03-Feb-19 09:15 36.570035 -121.512210 152 7097ft 190kts
03-Feb-19 09:16 36.526827 -121.472492 151 7102ft 194kts
03-Feb-19 09:17 36.483478 -121.431807 150 7100ft 195kts
03-Feb-19 09:18 36.442775 -121.388514 147 7099ft 197kts
03-Feb-19 09:19 36.400740 -121.345319 149 7111ft 194kts
03-Feb-19 09:20 36.359643 -121.304815 151 7567ft 185kts
03-Feb-19 09:21 36.319812 -121.265817 152 8191ft 175kts
03-Feb-19 09:22 36.282781 -121.229679 153 8916ft 166kts
03-Feb-19 09:23 36.246422 -121.194285 152 9553ft 166kts
03-Feb-19 09:24 36.210499 -121.159370 156 10159ft 166kts
03-Feb-19 09:25 36.174007 -121.123825 149 10729ft 169kts
03-Feb-19 09:26 36.141413 -121.079412 142 11165ft 182kts
03-Feb-19 09:27 36.105398 -121.029498 141 11045ft 197kts
03-Feb-19 09:28 36.068697 -120.978669 141 11040ft 198kts
03-Feb-19 09:29 36.031586 -120.927416 140 11045ft 201kts
03-Feb-19 09:30 35.995431 -120.877511 141 10186ft 190kts
03-Feb-19 09:31 35.961339 -120.830516 142 9161ft 174kts
03-Feb-19 09:32 35.929796 -120.787842 141 8105ft 164kts
03-Feb-19 09:33 35.899753 -120.746509 147 7028ft 159kts
03-Feb-19 09:34 35.871565 -120.706429 120 5865ft 163kts
03-Feb-19 09:35 35.881849 -120.650360 85 4653ft 169kts
03-Feb-19 09:36 35.881540 -120.596666 123 4525ft 149kts
03-Feb-19 09:37 35.848771 -120.590354 199 4062ft 124kts
03-Feb-19 09:38 35.815690 -120.601215 194 2995ft 114kts
03-Feb-19 09:39 35.789299 -120.605678 193 2814ft 97kts
03-Feb-19 09:40 35.763885 -120.609997 195 2825ft 98kts
03-Feb-19 09:41 35.736559 -120.615016 196 2066ft 103kts
03-Feb-19 09:42 35.708616 -120.619648 193 1453ft 98kts
03-Feb-19 09:43 35.682877 -120.624307 212 947ft 88kts
03-Feb-19 09:44 35.673902 -120.631409 270 842ft 11kts
03-Feb-19 09:45 35.673872 -120.632760 266 842ft 13kts
03-Feb-19 09:46 35.674373 -120.636614 264 842ft 0kts
03-Feb-19 09:47 35.674373 -120.636614 264 842ft 0kts
03-Feb-19 09:48 35.674373 -120.636614 264 842ft 0kts
03-Feb-19 09:49 35.674373 -120.636614 264 842ft 0kts
03-Feb-19 09:50 35.674373 -120.636614 264 842ft 0kts
03-Feb-19 09:51 35.674373 -120.636614 264 842ft 0kts
03-Feb-19 09:52 35.674373 -120.636614 264 842ft 0kts
03-Feb-19 09:53 35.674373 -120.636614 264 842ft 0kts

Navigation Log

Ident Type
Flight plan parsing failed, navigation log unavailable